sensor_id;sensor_type;location;lat;lon;timestamp;P1;durP1;ratioP1;P2;durP2;ratioP2
28335;SDS011;15592;53.656;7.276;2023-02-21T00:02:06;16.83;;;3.92;;
28335;SDS011;15592;53.656;7.276;2023-02-21T00:04:50;22.70;;;4.47;;
28335;SDS011;15592;53.656;7.276;2023-02-21T00:07:34;13.10;;;3.65;;
28335;SDS011;15592;53.656;7.276;2023-02-21T00:10:18;12.65;;;2.88;;
28335;SDS011;15592;53.656;7.276;2023-02-21T00:13:02;8.38;;;3.13;;
28335;SDS011;15592;53.656;7.276;2023-02-21T00:15:47;12.70;;;3.20;;
28335;SDS011;15592;53.656;7.276;2023-02-21T00:18:34;11.40;;;3.17;;
28335;SDS011;15592;53.656;7.276;2023-02-21T00:21:19;18.88;;;3.97;;
28335;SDS011;15592;53.656;7.276;2023-02-21T00:24:03;16.13;;;3.10;;
28335;SDS011;15592;53.656;7.276;2023-02-21T00:26:48;20.80;;;3.83;;
28335;SDS011;15592;53.656;7.276;2023-02-21T00:29:31;25.80;;;4.65;;
28335;SDS011;15592;53.656;7.276;2023-02-21T00:32:16;17.00;;;4.63;;
28335;SDS011;15592;53.656;7.276;2023-02-21T00:35:00;30.80;;;4.78;;
28335;SDS011;15592;53.656;7.276;2023-02-21T00:37:44;26.08;;;5.07;;
28335;SDS011;15592;53.656;7.276;2023-02-21T00:40:31;24.98;;;4.63;;
28335;SDS011;15592;53.656;7.276;2023-02-21T00:43:15;23.30;;;4.80;;
28335;SDS011;15592;53.656;7.276;2023-02-21T00:45:59;28.80;;;5.50;;
28335;SDS011;15592;53.656;7.276;2023-02-21T00:48:44;29.50;;;5.65;;
28335;SDS011;15592;53.656;7.276;2023-02-21T00:51:28;31.90;;;5.88;;
28335;SDS011;15592;53.656;7.276;2023-02-21T00:54:12;23.92;;;5.03;;
28335;SDS011;15592;53.656;7.276;2023-02-21T00:56:56;26.23;;;5.10;;
28335;SDS011;15592;53.656;7.276;2023-02-21T00:59:40;27.83;;;5.40;;
28335;SDS011;15592;53.656;7.276;2023-02-21T01:02:24;28.33;;;5.22;;
28335;SDS011;15592;53.656;7.276;2023-02-21T01:05:08;18.60;;;4.45;;
28335;SDS011;15592;53.656;7.276;2023-02-21T01:07:52;26.95;;;4.82;;
28335;SDS011;15592;53.656;7.276;2023-02-21T01:10:36;22.20;;;4.18;;
28335;SDS011;15592;53.656;7.276;2023-02-21T01:13:20;36.53;;;6.55;;
28335;SDS011;15592;53.656;7.276;2023-02-21T01:16:05;30.45;;;5.15;;
28335;SDS011;15592;53.656;7.276;2023-02-21T01:18:50;29.25;;;5.20;;
28335;SDS011;15592;53.656;7.276;2023-02-21T01:21:34;22.25;;;5.38;;
28335;SDS011;15592;53.656;7.276;2023-02-21T01:24:18;31.08;;;5.35;;
28335;SDS011;15592;53.656;7.276;2023-02-21T01:27:02;20.30;;;5.00;;
28335;SDS011;15592;53.656;7.276;2023-02-21T01:29:47;18.70;;;4.45;;
28335;SDS011;15592;53.656;7.276;2023-02-21T01:32:31;30.10;;;5.32;;
28335;SDS011;15592;53.656;7.276;2023-02-21T01:35:15;28.20;;;5.28;;
28335;SDS011;15592;53.656;7.276;2023-02-21T01:37:59;25.23;;;5.40;;
28335;SDS011;15592;53.656;7.276;2023-02-21T01:40:43;24.20;;;4.90;;
28335;SDS011;15592;53.656;7.276;2023-02-21T01:43:28;28.20;;;5.40;;
28335;SDS011;15592;53.656;7.276;2023-02-21T01:46:13;21.98;;;4.57;;
28335;SDS011;15592;53.656;7.276;2023-02-21T01:49:01;21.52;;;5.20;;
28335;SDS011;15592;53.656;7.276;2023-02-21T01:51:48;15.60;;;4.60;;
28335;SDS011;15592;53.656;7.276;2023-02-21T01:54:35;20.25;;;4.30;;
28335;SDS011;15592;53.656;7.276;2023-02-21T01:57:22;29.75;;;5.55;;
28335;SDS011;15592;53.656;7.276;2023-02-21T02:00:08;28.40;;;4.38;;
28335;SDS011;15592;53.656;7.276;2023-02-21T02:02:58;13.68;;;3.00;;
28335;SDS011;15592;53.656;7.276;2023-02-21T02:05:49;15.80;;;3.40;;
28335;SDS011;15592;53.656;7.276;2023-02-21T02:08:38;9.50;;;3.33;;
28335;SDS011;15592;53.656;7.276;2023-02-21T02:17:24;12.80;;;2.58;;
28335;SDS011;15592;53.656;7.276;2023-02-21T02:34:01;8.10;;;2.45;;
28335;SDS011;15592;53.656;7.276;2023-02-21T02:36:41;10.13;;;2.58;;
28335;SDS011;15592;53.656;7.276;2023-02-21T02:40:17;9.93;;;2.63;;
28335;SDS011;15592;53.656;7.276;2023-02-21T02:44:47;9.55;;;2.67;;
28335;SDS011;15592;53.656;7.276;2023-02-21T02:47:28;11.27;;;2.67;;
28335;SDS011;15592;53.656;7.276;2023-02-21T02:49:58;10.85;;;2.55;;
28335;SDS011;15592;53.656;7.276;2023-02-21T02:52:25;14.95;;;3.28;;
28335;SDS011;15592;53.656;7.276;2023-02-21T02:57:58;15.27;;;3.17;;
28335;SDS011;15592;53.656;7.276;2023-02-21T03:00:24;15.82;;;3.65;;
28335;SDS011;15592;53.656;7.276;2023-02-21T03:03:00;17.58;;;3.05;;
28335;SDS011;15592;53.656;7.276;2023-02-21T03:05:53;16.83;;;3.97;;
28335;SDS011;15592;53.656;7.276;2023-02-21T03:11:19;13.43;;;3.35;;
28335;SDS011;15592;53.656;7.276;2023-02-21T03:16:32;9.27;;;2.30;;
28335;SDS011;15592;53.656;7.276;2023-02-21T03:19:16;8.27;;;2.50;;
28335;SDS011;15592;53.656;7.276;2023-02-21T03:21:48;11.50;;;2.78;;
28335;SDS011;15592;53.656;7.276;2023-02-21T03:24:27;8.55;;;2.13;;
28335;SDS011;15592;53.656;7.276;2023-02-21T03:26:59;9.77;;;2.95;;
28335;SDS011;15592;53.656;7.276;2023-02-21T03:29:28;10.13;;;3.17;;
28335;SDS011;15592;53.656;7.276;2023-02-21T03:31:57;15.43;;;3.58;;
28335;SDS011;15592;53.656;7.276;2023-02-21T03:34:34;10.23;;;2.67;;
28335;SDS011;15592;53.656;7.276;2023-02-21T03:37:01;9.43;;;2.83;;
28335;SDS011;15592;53.656;7.276;2023-02-21T03:39:27;13.52;;;2.97;;
28335;SDS011;15592;53.656;7.276;2023-02-21T03:41:53;13.20;;;2.75;;
28335;SDS011;15592;53.656;7.276;2023-02-21T03:44:18;15.57;;;3.05;;
28335;SDS011;15592;53.656;7.276;2023-02-21T03:46:44;6.90;;;2.80;;
28335;SDS011;15592;53.656;7.276;2023-02-21T03:49:09;7.60;;;3.03;;
28335;SDS011;15592;53.656;7.276;2023-02-21T03:51:35;11.48;;;2.90;;
28335;SDS011;15592;53.656;7.276;2023-02-21T03:54:00;9.40;;;2.55;;
28335;SDS011;15592;53.656;7.276;2023-02-21T03:56:26;6.28;;;2.50;;
28335;SDS011;15592;53.656;7.276;2023-02-21T03:58:52;8.85;;;2.88;;
28335;SDS011;15592;53.656;7.276;2023-02-21T04:01:17;9.27;;;2.78;;
28335;SDS011;15592;53.656;7.276;2023-02-21T04:03:43;6.95;;;2.22;;
28335;SDS011;15592;53.656;7.276;2023-02-21T04:06:08;5.28;;;1.92;;
28335;SDS011;15592;53.656;7.276;2023-02-21T04:08:34;8.52;;;2.35;;
28335;SDS011;15592;53.656;7.276;2023-02-21T04:11:00;9.18;;;2.47;;
28335;SDS011;15592;53.656;7.276;2023-02-21T04:13:25;7.30;;;2.30;;
28335;SDS011;15592;53.656;7.276;2023-02-21T04:15:51;6.88;;;2.28;;
28335;SDS011;15592;53.656;7.276;2023-02-21T04:18:16;7.40;;;2.38;;
28335;SDS011;15592;53.656;7.276;2023-02-21T04:20:42;8.10;;;2.58;;
28335;SDS011;15592;53.656;7.276;2023-02-21T04:23:08;6.20;;;2.22;;
28335;SDS011;15592;53.656;7.276;2023-02-21T04:25:33;7.45;;;2.60;;
28335;SDS011;15592;53.656;7.276;2023-02-21T04:27:59;8.57;;;2.33;;
28335;SDS011;15592;53.656;7.276;2023-02-21T04:30:24;7.32;;;2.33;;
28335;SDS011;15592;53.656;7.276;2023-02-21T04:32:50;9.93;;;2.80;;
28335;SDS011;15592;53.656;7.276;2023-02-21T04:35:16;5.65;;;1.98;;
28335;SDS011;15592;53.656;7.276;2023-02-21T04:37:41;5.82;;;2.47;;
28335;SDS011;15592;53.656;7.276;2023-02-21T04:40:09;7.07;;;2.30;;
28335;SDS011;15592;53.656;7.276;2023-02-21T04:42:34;4.65;;;2.03;;
28335;SDS011;15592;53.656;7.276;2023-02-21T04:45:00;3.42;;;1.70;;
28335;SDS011;15592;53.656;7.276;2023-02-21T04:47:26;6.20;;;2.38;;
28335;SDS011;15592;53.656;7.276;2023-02-21T04:49:51;5.68;;;2.15;;
28335;SDS011;15592;53.656;7.276;2023-02-21T04:52:17;5.70;;;2.10;;
28335;SDS011;15592;53.656;7.276;2023-02-21T04:54:46;4.18;;;2.35;;
28335;SDS011;15592;53.656;7.276;2023-02-21T04:57:13;5.68;;;2.30;;
28335;SDS011;15592;53.656;7.276;2023-02-21T04:59:40;8.48;;;2.58;;
28335;SDS011;15592;53.656;7.276;2023-02-21T05:02:06;4.68;;;2.50;;
28335;SDS011;15592;53.656;7.276;2023-02-21T05:04:32;6.88;;;2.70;;
28335;SDS011;15592;53.656;7.276;2023-02-21T05:06:59;9.30;;;2.85;;
28335;SDS011;15592;53.656;7.276;2023-02-21T05:09:24;7.78;;;3.25;;
28335;SDS011;15592;53.656;7.276;2023-02-21T05:11:50;7.63;;;3.35;;
28335;SDS011;15592;53.656;7.276;2023-02-21T05:14:16;5.50;;;3.05;;
28335;SDS011;15592;53.656;7.276;2023-02-21T05:16:44;6.60;;;2.80;;
28335;SDS011;15592;53.656;7.276;2023-02-21T05:19:10;8.63;;;3.67;;
28335;SDS011;15592;53.656;7.276;2023-02-21T05:21:35;12.30;;;4.60;;
28335;SDS011;15592;53.656;7.276;2023-02-21T05:24:05;20.58;;;5.63;;
28335;SDS011;15592;53.656;7.276;2023-02-21T05:26:35;18.83;;;5.75;;
28335;SDS011;15592;53.656;7.276;2023-02-21T05:29:02;15.50;;;5.35;;
28335;SDS011;15592;53.656;7.276;2023-02-21T05:31:29;14.60;;;4.32;;
28335;SDS011;15592;53.656;7.276;2023-02-21T05:33:55;11.55;;;4.43;;
28335;SDS011;15592;53.656;7.276;2023-02-21T05:36:22;13.25;;;4.20;;
28335;SDS011;15592;53.656;7.276;2023-02-21T05:38:51;10.88;;;4.15;;
28335;SDS011;15592;53.656;7.276;2023-02-21T05:41:18;11.40;;;4.15;;
28335;SDS011;15592;53.656;7.276;2023-02-21T05:43:45;12.73;;;3.83;;
28335;SDS011;15592;53.656;7.276;2023-02-21T05:46:19;13.40;;;3.88;;
28335;SDS011;15592;53.656;7.276;2023-02-21T05:48:51;13.38;;;3.30;;
28335;SDS011;15592;53.656;7.276;2023-02-21T05:51:17;13.88;;;3.83;;
28335;SDS011;15592;53.656;7.276;2023-02-21T05:53:43;15.45;;;5.05;;
28335;SDS011;15592;53.656;7.276;2023-02-21T05:56:09;18.60;;;4.85;;
28335;SDS011;15592;53.656;7.276;2023-02-21T05:58:35;25.98;;;6.38;;
28335;SDS011;15592;53.656;7.276;2023-02-21T06:01:00;26.63;;;6.95;;
28335;SDS011;15592;53.656;7.276;2023-02-21T06:03:27;24.77;;;6.43;;
28335;SDS011;15592;53.656;7.276;2023-02-21T06:05:52;34.50;;;7.32;;
28335;SDS011;15592;53.656;7.276;2023-02-21T06:08:18;28.17;;;6.18;;
28335;SDS011;15592;53.656;7.276;2023-02-21T06:10:43;31.92;;;6.70;;
28335;SDS011;15592;53.656;7.276;2023-02-21T06:13:09;23.55;;;6.07;;
28335;SDS011;15592;53.656;7.276;2023-02-21T06:28:18;9.80;;;3.92;;
28335;SDS011;15592;53.656;7.276;2023-02-21T06:41:35;10.25;;;3.90;;
28335;SDS011;15592;53.656;7.276;2023-02-21T06:44:46;9.40;;;3.30;;
28335;SDS011;15592;53.656;7.276;2023-02-21T06:47:13;7.05;;;3.00;;
28335;SDS011;15592;53.656;7.276;2023-02-21T06:49:42;7.55;;;3.17;;
28335;SDS011;15592;53.656;7.276;2023-02-21T06:52:21;6.75;;;3.35;;
28335;SDS011;15592;53.656;7.276;2023-02-21T06:54:48;9.10;;;3.05;;
28335;SDS011;15592;53.656;7.276;2023-02-21T06:57:17;7.50;;;3.10;;
28335;SDS011;15592;53.656;7.276;2023-02-21T06:59:43;7.20;;;3.50;;
28335;SDS011;15592;53.656;7.276;2023-02-21T07:02:17;6.03;;;3.10;;
28335;SDS011;15592;53.656;7.276;2023-02-21T07:04:44;6.93;;;3.45;;
28335;SDS011;15592;53.656;7.276;2023-02-21T07:07:10;9.10;;;3.58;;
28335;SDS011;15592;53.656;7.276;2023-02-21T07:09:36;7.63;;;3.70;;
28335;SDS011;15592;53.656;7.276;2023-02-21T07:12:01;17.00;;;5.28;;
28335;SDS011;15592;53.656;7.276;2023-02-21T07:14:28;17.65;;;5.80;;
28335;SDS011;15592;53.656;7.276;2023-02-21T07:17:01;11.73;;;5.10;;
28335;SDS011;15592;53.656;7.276;2023-02-21T07:19:30;12.13;;;4.88;;
28335;SDS011;15592;53.656;7.276;2023-02-21T07:21:55;12.50;;;5.13;;
28335;SDS011;15592;53.656;7.276;2023-02-21T07:24:21;19.00;;;5.75;;
28335;SDS011;15592;53.656;7.276;2023-02-21T07:26:47;18.88;;;5.47;;
28335;SDS011;15592;53.656;7.276;2023-02-21T07:29:12;19.13;;;5.50;;
28335;SDS011;15592;53.656;7.276;2023-02-21T07:31:38;16.52;;;5.30;;
28335;SDS011;15592;53.656;7.276;2023-02-21T07:34:04;17.95;;;5.20;;
28335;SDS011;15592;53.656;7.276;2023-02-21T07:36:30;18.23;;;5.47;;
28335;SDS011;15592;53.656;7.276;2023-02-21T07:38:55;16.55;;;5.72;;
28335;SDS011;15592;53.656;7.276;2023-02-21T07:41:21;15.85;;;5.22;;
28335;SDS011;15592;53.656;7.276;2023-02-21T07:43:47;12.02;;;4.63;;
28335;SDS011;15592;53.656;7.276;2023-02-21T07:46:13;16.10;;;4.85;;
28335;SDS011;15592;53.656;7.276;2023-02-21T07:48:40;14.27;;;4.18;;
28335;SDS011;15592;53.656;7.276;2023-02-21T07:51:06;13.73;;;4.70;;
28335;SDS011;15592;53.656;7.276;2023-02-21T07:53:33;10.85;;;4.28;;
28335;SDS011;15592;53.656;7.276;2023-02-21T07:55:58;21.17;;;5.18;;
28335;SDS011;15592;53.656;7.276;2023-02-21T07:58:24;16.98;;;4.93;;
28335;SDS011;15592;53.656;7.276;2023-02-21T08:00:50;28.65;;;6.43;;
28335;SDS011;15592;53.656;7.276;2023-02-21T08:03:16;26.10;;;6.03;;
28335;SDS011;15592;53.656;7.276;2023-02-21T08:05:41;32.40;;;6.60;;
28335;SDS011;15592;53.656;7.276;2023-02-21T08:08:08;24.48;;;5.72;;
28335;SDS011;15592;53.656;7.276;2023-02-21T08:10:34;27.60;;;6.22;;
28335;SDS011;15592;53.656;7.276;2023-02-21T08:13:00;28.35;;;5.68;;
28335;SDS011;15592;53.656;7.276;2023-02-21T08:15:26;30.83;;;7.28;;
28335;SDS011;15592;53.656;7.276;2023-02-21T08:17:52;40.55;;;7.30;;
28335;SDS011;15592;53.656;7.276;2023-02-21T08:20:18;35.45;;;6.45;;
28335;SDS011;15592;53.656;7.276;2023-02-21T08:22:44;26.02;;;6.07;;
28335;SDS011;15592;53.656;7.276;2023-02-21T08:25:10;38.30;;;7.32;;
28335;SDS011;15592;53.656;7.276;2023-02-21T08:27:40;36.35;;;7.25;;
28335;SDS011;15592;53.656;7.276;2023-02-21T08:30:07;24.30;;;5.70;;
28335;SDS011;15592;53.656;7.276;2023-02-21T08:32:34;41.53;;;5.93;;
28335;SDS011;15592;53.656;7.276;2023-02-21T08:35:00;23.50;;;6.07;;
28335;SDS011;15592;53.656;7.276;2023-02-21T08:37:27;33.92;;;6.53;;
28335;SDS011;15592;53.656;7.276;2023-02-21T08:39:57;25.70;;;6.77;;
28335;SDS011;15592;53.656;7.276;2023-02-21T08:42:23;28.75;;;6.70;;
28335;SDS011;15592;53.656;7.276;2023-02-21T08:44:49;30.88;;;6.68;;
28335;SDS011;15592;53.656;7.276;2023-02-21T08:47:15;23.63;;;6.07;;
28335;SDS011;15592;53.656;7.276;2023-02-21T08:49:46;27.08;;;6.28;;
28335;SDS011;15592;53.656;7.276;2023-02-21T08:54:40;22.92;;;5.95;;
28335;SDS011;15592;53.656;7.276;2023-02-21T08:57:06;22.45;;;6.30;;
28335;SDS011;15592;53.656;7.276;2023-02-21T08:59:32;20.20;;;6.28;;
28335;SDS011;15592;53.656;7.276;2023-02-21T09:01:59;19.85;;;5.57;;
28335;SDS011;15592;53.656;7.276;2023-02-21T09:04:25;22.02;;;6.47;;
28335;SDS011;15592;53.656;7.276;2023-02-21T09:06:52;18.13;;;4.82;;
28335;SDS011;15592;53.656;7.276;2023-02-21T09:09:18;18.35;;;5.60;;
28335;SDS011;15592;53.656;7.276;2023-02-21T09:11:44;16.63;;;5.70;;
28335;SDS011;15592;53.656;7.276;2023-02-21T09:14:12;20.95;;;5.97;;
28335;SDS011;15592;53.656;7.276;2023-02-21T09:16:38;12.32;;;4.65;;
28335;SDS011;15592;53.656;7.276;2023-02-21T09:19:04;14.07;;;4.90;;
28335;SDS011;15592;53.656;7.276;2023-02-21T09:21:31;14.48;;;4.82;;
28335;SDS011;15592;53.656;7.276;2023-02-21T09:23:57;14.77;;;5.20;;
28335;SDS011;15592;53.656;7.276;2023-02-21T09:26:23;13.98;;;5.40;;
28335;SDS011;15592;53.656;7.276;2023-02-21T09:28:50;18.92;;;5.45;;
28335;SDS011;15592;53.656;7.276;2023-02-21T09:31:17;21.15;;;6.30;;
28335;SDS011;15592;53.656;7.276;2023-02-21T09:33:43;20.48;;;6.55;;
28335;SDS011;15592;53.656;7.276;2023-02-21T09:36:10;23.50;;;6.40;;
28335;SDS011;15592;53.656;7.276;2023-02-21T09:38:36;19.50;;;6.57;;
28335;SDS011;15592;53.656;7.276;2023-02-21T09:41:06;22.95;;;6.45;;
28335;SDS011;15592;53.656;7.276;2023-02-21T09:43:35;23.60;;;7.20;;
28335;SDS011;15592;53.656;7.276;2023-02-21T09:46:05;23.00;;;6.78;;
28335;SDS011;15592;53.656;7.276;2023-02-21T09:48:35;28.65;;;7.97;;
28335;SDS011;15592;53.656;7.276;2023-02-21T09:51:02;33.10;;;8.32;;
28335;SDS011;15592;53.656;7.276;2023-02-21T09:53:32;27.17;;;8.33;;
28335;SDS011;15592;53.656;7.276;2023-02-21T09:56:17;27.90;;;8.50;;
28335;SDS011;15592;53.656;7.276;2023-02-21T09:58:49;20.60;;;7.88;;
28335;SDS011;15592;53.656;7.276;2023-02-21T10:06:50;24.95;;;7.72;;
28335;SDS011;15592;53.656;7.276;2023-02-21T10:12:17;15.70;;;7.20;;
28335;SDS011;15592;53.656;7.276;2023-02-21T10:20:20;27.02;;;10.35;;
28335;SDS011;15592;53.656;7.276;2023-02-21T10:22:53;32.35;;;9.90;;
28335;SDS011;15592;53.656;7.276;2023-02-21T10:25:22;32.75;;;10.38;;
28335;SDS011;15592;53.656;7.276;2023-02-21T10:27:52;29.90;;;10.07;;
28335;SDS011;15592;53.656;7.276;2023-02-21T10:30:36;30.05;;;10.75;;
28335;SDS011;15592;53.656;7.276;2023-02-21T10:33:04;37.92;;;12.32;;
28335;SDS011;15592;53.656;7.276;2023-02-21T10:35:40;33.30;;;12.00;;
28335;SDS011;15592;53.656;7.276;2023-02-21T10:38:06;27.45;;;11.20;;
28335;SDS011;15592;53.656;7.276;2023-02-21T10:40:52;30.27;;;11.82;;
28335;SDS011;15592;53.656;7.276;2023-02-21T10:48:24;31.63;;;12.65;;
28335;SDS011;15592;53.656;7.276;2023-02-21T10:51:11;33.47;;;11.82;;
28335;SDS011;15592;53.656;7.276;2023-02-21T10:53:38;32.22;;;12.23;;
28335;SDS011;15592;53.656;7.276;2023-02-21T11:03:53;31.52;;;12.00;;
28335;SDS011;15592;53.656;7.276;2023-02-21T11:06:35;27.52;;;11.93;;
28335;SDS011;15592;53.656;7.276;2023-02-21T11:09:22;29.73;;;12.00;;
28335;SDS011;15592;53.656;7.276;2023-02-21T11:11:58;28.90;;;11.55;;
28335;SDS011;15592;53.656;7.276;2023-02-21T11:14:35;29.45;;;10.98;;
28335;SDS011;15592;53.656;7.276;2023-02-21T11:17:12;22.80;;;9.98;;
28335;SDS011;15592;53.656;7.276;2023-02-21T11:20:03;25.67;;;10.98;;
28335;SDS011;15592;53.656;7.276;2023-02-21T11:22:43;31.05;;;12.00;;
28335;SDS011;15592;53.656;7.276;2023-02-21T11:25:26;35.58;;;12.88;;
28335;SDS011;15592;53.656;7.276;2023-02-21T11:33:25;30.67;;;12.85;;
28335;SDS011;15592;53.656;7.276;2023-02-21T11:35:52;24.73;;;11.75;;
28335;SDS011;15592;53.656;7.276;2023-02-21T11:38:34;28.05;;;11.73;;
28335;SDS011;15592;53.656;7.276;2023-02-21T11:41:03;27.00;;;11.20;;
28335;SDS011;15592;53.656;7.276;2023-02-21T11:43:49;33.53;;;12.75;;
28335;SDS011;15592;53.656;7.276;2023-02-21T11:51:40;33.22;;;12.27;;
28335;SDS011;15592;53.656;7.276;2023-02-21T11:54:12;29.67;;;11.15;;
28335;SDS011;15592;53.656;7.276;2023-02-21T12:03:19;33.97;;;11.15;;
28335;SDS011;15592;53.656;7.276;2023-02-21T12:10:47;29.90;;;12.35;;
28335;SDS011;15592;53.656;7.276;2023-02-21T12:30:15;23.08;;;9.75;;
28335;SDS011;15592;53.656;7.276;2023-02-21T12:46:41;22.35;;;9.80;;
28335;SDS011;15592;53.656;7.276;2023-02-21T12:51:57;27.58;;;10.93;;
28335;SDS011;15592;53.656;7.276;2023-02-21T12:57:10;22.20;;;9.73;;
28335;SDS011;15592;53.656;7.276;2023-02-21T13:05:03;23.75;;;10.70;;
28335;SDS011;15592;53.656;7.276;2023-02-21T13:10:22;22.90;;;10.88;;
28335;SDS011;15592;53.656;7.276;2023-02-21T13:12:59;28.20;;;11.02;;
28335;SDS011;15592;53.656;7.276;2023-02-21T13:15:37;22.25;;;9.85;;
28335;SDS011;15592;53.656;7.276;2023-02-21T13:18:07;24.45;;;10.38;;
28335;SDS011;15592;53.656;7.276;2023-02-21T13:20:47;25.30;;;10.45;;
28335;SDS011;15592;53.656;7.276;2023-02-21T13:23:28;28.10;;;10.07;;
28335;SDS011;15592;53.656;7.276;2023-02-21T13:31:03;33.75;;;11.40;;
28335;SDS011;15592;53.656;7.276;2023-02-21T13:33:37;26.75;;;10.60;;
28335;SDS011;15592;53.656;7.276;2023-02-21T13:38:46;25.13;;;10.65;;
28335;SDS011;15592;53.656;7.276;2023-02-21T13:41:36;27.35;;;11.55;;
28335;SDS011;15592;53.656;7.276;2023-02-21T13:44:18;26.00;;;11.60;;
28335;SDS011;15592;53.656;7.276;2023-02-21T13:47:13;23.10;;;12.13;;
28335;SDS011;15592;53.656;7.276;2023-02-21T14:11:01;18.42;;;9.27;;
28335;SDS011;15592;53.656;7.276;2023-02-21T14:13:39;22.45;;;9.32;;
28335;SDS011;15592;53.656;7.276;2023-02-21T14:18:39;19.83;;;9.48;;
28335;SDS011;15592;53.656;7.276;2023-02-21T14:21:23;20.77;;;9.43;;
28335;SDS011;15592;53.656;7.276;2023-02-21T14:24:00;23.13;;;9.27;;
28335;SDS011;15592;53.656;7.276;2023-02-21T14:51:01;19.02;;;9.02;;
28335;SDS011;15592;53.656;7.276;2023-02-21T14:56:26;25.02;;;9.98;;
28335;SDS011;15592;53.656;7.276;2023-02-21T15:01:57;23.02;;;10.20;;
28335;SDS011;15592;53.656;7.276;2023-02-21T15:04:45;22.30;;;10.27;;
28335;SDS011;15592;53.656;7.276;2023-02-21T15:07:27;24.23;;;10.50;;
28335;SDS011;15592;53.656;7.276;2023-02-21T15:10:16;21.52;;;10.43;;
28335;SDS011;15592;53.656;7.276;2023-02-21T15:12:56;21.77;;;10.27;;
28335;SDS011;15592;53.656;7.276;2023-02-21T15:15:28;21.25;;;10.52;;
28335;SDS011;15592;53.656;7.276;2023-02-21T15:18:03;20.67;;;10.77;;
28335;SDS011;15592;53.656;7.276;2023-02-21T15:20:31;22.27;;;10.70;;
28335;SDS011;15592;53.656;7.276;2023-02-21T15:22:59;19.90;;;10.48;;
28335;SDS011;15592;53.656;7.276;2023-02-21T15:25:26;21.38;;;10.63;;
28335;SDS011;15592;53.656;7.276;2023-02-21T15:27:53;22.67;;;10.07;;
28335;SDS011;15592;53.656;7.276;2023-02-21T15:30:31;20.52;;;10.65;;
28335;SDS011;15592;53.656;7.276;2023-02-21T15:33:18;21.50;;;10.10;;
28335;SDS011;15592;53.656;7.276;2023-02-21T15:38:14;17.75;;;9.52;;
28335;SDS011;15592;53.656;7.276;2023-02-21T15:41:07;19.60;;;9.80;;
28335;SDS011;15592;53.656;7.276;2023-02-21T15:43:41;22.33;;;9.90;;
28335;SDS011;15592;53.656;7.276;2023-02-21T15:46:26;16.15;;;9.38;;
28335;SDS011;15592;53.656;7.276;2023-02-21T15:48:58;24.92;;;10.77;;
28335;SDS011;15592;53.656;7.276;2023-02-21T15:51:25;26.00;;;10.90;;
28335;SDS011;15592;53.656;7.276;2023-02-21T15:54:08;18.52;;;10.07;;
28335;SDS011;15592;53.656;7.276;2023-02-21T15:56:35;18.38;;;9.68;;
28335;SDS011;15592;53.656;7.276;2023-02-21T15:59:11;19.23;;;9.15;;
28335;SDS011;15592;53.656;7.276;2023-02-21T16:04:45;30.00;;;11.23;;
28335;SDS011;15592;53.656;7.276;2023-02-21T16:09:47;22.65;;;10.18;;
28335;SDS011;15592;53.656;7.276;2023-02-21T16:12:52;24.05;;;10.45;;
28335;SDS011;15592;53.656;7.276;2023-02-21T16:15:18;21.50;;;9.65;;
28335;SDS011;15592;53.656;7.276;2023-02-21T16:17:55;19.77;;;9.68;;
28335;SDS011;15592;53.656;7.276;2023-02-21T16:20:27;14.90;;;8.98;;
28335;SDS011;15592;53.656;7.276;2023-02-21T16:28:39;16.98;;;9.80;;
28335;SDS011;15592;53.656;7.276;2023-02-21T16:31:06;17.42;;;9.88;;
28335;SDS011;15592;53.656;7.276;2023-02-21T16:33:36;21.98;;;9.80;;
28335;SDS011;15592;53.656;7.276;2023-02-21T16:36:06;19.70;;;10.25;;
28335;SDS011;15592;53.656;7.276;2023-02-21T16:41:11;28.83;;;12.48;;
28335;SDS011;15592;53.656;7.276;2023-02-21T16:43:37;19.13;;;10.43;;
28335;SDS011;15592;53.656;7.276;2023-02-21T16:46:03;26.15;;;10.93;;
28335;SDS011;15592;53.656;7.276;2023-02-21T16:48:29;23.98;;;11.82;;
28335;SDS011;15592;53.656;7.276;2023-02-21T16:50:59;23.30;;;9.60;;
28335;SDS011;15592;53.656;7.276;2023-02-21T16:53:29;18.63;;;9.55;;
28335;SDS011;15592;53.656;7.276;2023-02-21T16:55:55;25.92;;;10.90;;
28335;SDS011;15592;53.656;7.276;2023-02-21T16:58:24;24.73;;;10.40;;
28335;SDS011;15592;53.656;7.276;2023-02-21T17:00:54;18.50;;;9.98;;
28335;SDS011;15592;53.656;7.276;2023-02-21T17:03:25;22.48;;;9.77;;
28335;SDS011;15592;53.656;7.276;2023-02-21T17:05:53;20.25;;;9.50;;
28335;SDS011;15592;53.656;7.276;2023-02-21T17:08:20;17.00;;;9.15;;
28335;SDS011;15592;53.656;7.276;2023-02-21T17:10:45;22.85;;;9.50;;
28335;SDS011;15592;53.656;7.276;2023-02-21T17:13:11;19.92;;;9.85;;
28335;SDS011;15592;53.656;7.276;2023-02-21T17:15:37;18.77;;;9.70;;
28335;SDS011;15592;53.656;7.276;2023-02-21T17:18:03;18.38;;;9.90;;
28335;SDS011;15592;53.656;7.276;2023-02-21T17:20:28;22.13;;;10.45;;
28335;SDS011;15592;53.656;7.276;2023-02-21T17:22:55;21.67;;;9.80;;
28335;SDS011;15592;53.656;7.276;2023-02-21T17:25:23;26.08;;;11.10;;
28335;SDS011;15592;53.656;7.276;2023-02-21T17:27:49;23.05;;;11.57;;
28335;SDS011;15592;53.656;7.276;2023-02-21T17:30:15;26.05;;;11.90;;
28335;SDS011;15592;53.656;7.276;2023-02-21T17:32:44;26.15;;;12.38;;
28335;SDS011;15592;53.656;7.276;2023-02-21T17:35:11;26.48;;;12.20;;
28335;SDS011;15592;53.656;7.276;2023-02-21T17:37:38;24.70;;;12.77;;
28335;SDS011;15592;53.656;7.276;2023-02-21T17:40:05;27.40;;;12.00;;
28335;SDS011;15592;53.656;7.276;2023-02-21T17:42:31;23.45;;;12.35;;
28335;SDS011;15592;53.656;7.276;2023-02-21T17:44:57;27.63;;;12.25;;
28335;SDS011;15592;53.656;7.276;2023-02-21T17:47:24;28.75;;;12.75;;
28335;SDS011;15592;53.656;7.276;2023-02-21T17:49:49;30.20;;;13.75;;
28335;SDS011;15592;53.656;7.276;2023-02-21T17:52:18;26.30;;;13.30;;
28335;SDS011;15592;53.656;7.276;2023-02-21T17:54:44;29.92;;;12.93;;
28335;SDS011;15592;53.656;7.276;2023-02-21T17:57:10;22.00;;;11.73;;
28335;SDS011;15592;53.656;7.276;2023-02-21T17:59:35;24.85;;;12.70;;
28335;SDS011;15592;53.656;7.276;2023-02-21T18:02:01;29.58;;;13.13;;
28335;SDS011;15592;53.656;7.276;2023-02-21T18:04:27;26.30;;;14.00;;
28335;SDS011;15592;53.656;7.276;2023-02-21T18:06:52;26.42;;;14.35;;
28335;SDS011;15592;53.656;7.276;2023-02-21T18:09:18;33.25;;;16.80;;
28335;SDS011;15592;53.656;7.276;2023-02-21T18:11:48;29.55;;;16.08;;
28335;SDS011;15592;53.656;7.276;2023-02-21T18:14:15;34.25;;;18.00;;
28335;SDS011;15592;53.656;7.276;2023-02-21T18:16:41;30.00;;;15.95;;
28335;SDS011;15592;53.656;7.276;2023-02-21T18:19:07;31.00;;;16.70;;
28335;SDS011;15592;53.656;7.276;2023-02-21T18:21:32;32.40;;;17.35;;
28335;SDS011;15592;53.656;7.276;2023-02-21T18:23:58;29.70;;;16.48;;
28335;SDS011;15592;53.656;7.276;2023-02-21T18:26:24;32.92;;;16.33;;
28335;SDS011;15592;53.656;7.276;2023-02-21T18:28:50;33.45;;;17.70;;
28335;SDS011;15592;53.656;7.276;2023-02-21T18:31:16;36.88;;;19.42;;
28335;SDS011;15592;53.656;7.276;2023-02-21T18:33:42;46.45;;;20.20;;
28335;SDS011;15592;53.656;7.276;2023-02-21T18:36:08;34.50;;;19.83;;
28335;SDS011;15592;53.656;7.276;2023-02-21T18:38:34;39.67;;;20.20;;
28335;SDS011;15592;53.656;7.276;2023-02-21T18:40:59;34.00;;;19.77;;
28335;SDS011;15592;53.656;7.276;2023-02-21T18:43:27;38.00;;;21.00;;
28335;SDS011;15592;53.656;7.276;2023-02-21T18:45:54;35.60;;;21.27;;
28335;SDS011;15592;53.656;7.276;2023-02-21T18:48:22;35.72;;;20.17;;
28335;SDS011;15592;53.656;7.276;2023-02-21T18:50:49;37.70;;;21.50;;